Time;durP1;ratioP1;P1;durP2;ratioP2;P2;SDS_P1;SDS_P2;PMS_P1;PMS_P2;Temp;Humidity;BMP_temperature;BMP_pressure;BME280_temperature;BME280_humidity;BME280_pressure;Samples;Min_cycle;Max_cycle;Signal;HPM_P1;HPM_P2
2022/05/17 00:00:53;;;;;;;13.90;7.57;;;19.70;85.00;;;;;;5049640;28;20041;-73
2022/05/17 00:03:20;;;;;;;14.38;8.55;;;19.70;85.80;;;;;;5031184;28;20063;-73
2022/05/17 00:05:48;;;;;;;11.93;7.80;;;19.60;86.00;;;;;;5050698;28;20053;-73
2022/05/17 00:08:16;;;;;;;13.18;7.10;;;19.60;87.50;;;;;;5036302;28;20037;-73
2022/05/17 00:10:46;;;;;;;11.57;6.88;;;19.60;87.80;;;;;;5035256;28;20049;-73
2022/05/17 00:13:13;;;;;;;10.85;6.60;;;19.50;87.20;;;;;;5066479;28;20033;-73
2022/05/17 00:15:46;;;;;;;15.40;7.47;;;19.50;86.70;;;;;;5050688;28;20040;-73
2022/05/17 00:18:13;;;;;;;;;;;19.50;86.10;;;;;;5034713;28;20963;-73
2022/05/17 00:20:42;;;;;;;13.95;7.30;;;19.40;86.30;;;;;;5067482;28;19924;-73
2022/05/17 00:23:12;;;;;;;18.75;7.63;;;19.30;86.70;;;;;;5018640;28;20496;-73
2022/05/17 00:25:39;;;;;;;10.50;7.05;;;19.40;86.80;;;;;;5050421;28;20049;-73
2022/05/17 00:28:06;;;;;;;13.50;6.97;;;19.40;87.30;;;;;;5034330;28;20132;-73
2022/05/17 00:30:34;;;;;;;12.52;7.45;;;19.50;87.60;;;;;;5033785;28;20136;-73
2022/05/17 00:33:02;;;;;;;19.92;7.82;;;19.50;87.20;;;;;;5051979;28;20161;-73
2022/05/17 00:35:29;;;;;;;14.60;7.50;;;19.50;87.30;;;;;;5047059;28;20235;-73
2022/05/17 00:37:56;;;;;;;18.75;7.72;;;19.50;87.60;;;;;;5036718;28;20061;-73
2022/05/17 00:40:23;;;;;;;13.35;7.53;;;19.40;87.00;;;;;;5029280;28;20037;-72
2022/05/17 00:42:50;;;;;;;11.25;7.30;;;19.40;87.40;;;;;;5033909;28;20527;-73
2022/05/17 00:45:18;;;;;;;16.20;7.70;;;19.40;88.00;;;;;;5065789;28;20051;-73
2022/05/17 00:47:51;;;;;;;17.23;7.80;;;19.40;87.60;;;;;;5034160;28;20059;-73
2022/05/17 00:50:23;;;;;;;10.80;7.57;;;19.40;87.80;;;;;;5068675;28;20819;-73
2022/05/17 00:52:53;;;;;;;14.07;7.63;;;19.30;88.70;;;;;;5036254;28;20067;-73
2022/05/17 00:55:43;;;;;;;12.68;7.72;;;19.20;89.50;;;;;;5032783;28;20049;-73
2022/05/17 00:58:21;;;;;;;10.68;7.43;;;19.20;90.00;;;;;;5037137;28;20498;-73
2022/05/17 01:01:02;;;;;;;13.65;7.25;;;19.20;90.00;;;;;;5032588;28;20049;-73
2022/05/17 01:03:39;;;;;;;11.70;7.85;;;19.20;89.70;;;;;;5034127;28;20482;-73
2022/05/17 01:06:06;;;;;;;14.05;7.78;;;19.10;89.00;;;;;;5034758;28;20873;-75
2022/05/17 01:08:33;;;;;;;16.17;9.25;;;19.00;89.20;;;;;;5033120;28;20049;-72
2022/05/17 01:11:00;;;;;;;13.02;7.93;;;19.00;89.30;;;;;;5037952;28;20492;-75
2022/05/17 01:16:13;;;;;;;16.25;8.27;;;19.00;90.20;;;;;;5033291;28;20051;-75
2022/05/17 01:18:42;;;;;;;15.63;8.52;;;19.00;89.70;;;;;;5036714;28;20052;-73
2022/05/17 01:21:11;;;;;;;16.55;8.57;;;18.90;90.00;;;;;;5030851;28;20065;-73
2022/05/17 01:23:39;;;;;;;16.55;8.60;;;19.00;90.30;;;;;;5037938;28;20407;-73
2022/05/17 01:26:11;;;;;;;15.60;8.98;;;19.00;90.10;;;;;;5036965;28;20068;-75
2022/05/17 01:28:39;;;;;;;14.95;8.25;;;19.00;90.30;;;;;;5036973;28;20072;-72
2022/05/17 01:31:06;;;;;;;18.17;9.50;;;18.90;90.40;;;;;;5038876;28;20041;-72
2022/05/17 01:33:37;;;;;;;16.52;8.45;;;18.90;90.40;;;;;;5035983;28;20045;-73
2022/05/17 01:36:07;;;;;;;15.63;8.27;;;18.90;90.60;;;;;;5052557;28;20431;-75
2022/05/17 01:38:36;;;;;;;12.38;8.50;;;18.80;90.90;;;;;;5053106;28;20049;-73
2022/05/17 01:41:04;;;;;;;15.18;8.23;;;18.80;91.10;;;;;;5038012;28;20488;-75
2022/05/17 01:43:31;;;;;;;21.42;9.23;;;18.80;91.00;;;;;;5038878;28;20108;-75
2022/05/17 01:46:05;;;;;;;13.95;8.48;;;18.80;91.00;;;;;;5036531;28;20060;-74
2022/05/17 01:48:32;;;;;;;16.25;8.80;;;18.80;90.90;;;;;;5035464;28;20073;-75
2022/05/17 01:50:59;;;;;;;14.95;7.82;;;18.80;90.80;;;;;;5019687;28;20168;-75
2022/05/17 01:53:26;;;;;;;14.18;8.35;;;18.80;91.20;;;;;;5052936;28;20045;-75
2022/05/17 01:55:53;;;;;;;13.82;8.90;;;18.60;91.30;;;;;;5037209;28;20045;-74
2022/05/17 01:58:22;;;;;;;12.65;8.50;;;18.60;91.50;;;;;;5054110;28;20041;-75
2022/05/17 02:00:49;;;;;;;11.90;8.15;;;18.60;91.60;;;;;;5036177;28;20167;-74
2022/05/17 02:03:17;;;;;;;13.88;8.68;;;18.70;91.50;;;;;;5039725;28;20033;-75
2022/05/17 02:05:44;;;;;;;13.98;7.90;;;18.70;91.80;;;;;;5036689;28;20171;-75
2022/05/17 02:08:11;;;;;;;15.55;8.32;;;18.70;91.60;;;;;;5039945;28;20040;-75
2022/05/17 02:10:39;;;;;;;17.20;8.20;;;18.60;91.90;;;;;;5037119;28;20056;-75
2022/05/17 02:13:06;;;;;;;15.48;8.45;;;18.60;91.80;;;;;;5052733;28;20038;-75
2022/05/17 02:15:33;;;;;;;19.33;8.63;;;18.60;92.30;;;;;;5037387;28;20042;-75
2022/05/17 02:18:00;;;;;;;14.98;8.43;;;18.50;92.30;;;;;;5039107;28;20051;-74
2022/05/17 02:20:27;;;;;;;14.20;8.75;;;18.60;92.30;;;;;;5035832;28;20090;-74
2022/05/17 02:22:55;;;;;;;15.38;9.10;;;18.50;92.20;;;;;;5039631;28;21118;-75
2022/05/17 02:25:22;;;;;;;15.80;8.77;;;18.60;92.20;;;;;;5066283;28;20068;-74
2022/05/17 02:27:49;;;;;;;14.50;8.32;;;18.60;92.50;;;;;;5038782;28;20066;-74
2022/05/17 02:30:16;;;;;;;13.38;8.98;;;18.60;92.20;;;;;;5038607;28;20112;-74
2022/05/17 02:32:44;;;;;;;13.15;8.35;;;18.50;92.20;;;;;;5051443;28;20041;-74
2022/05/17 02:35:15;;;;;;;12.27;8.70;;;18.60;92.30;;;;;;5035105;28;20076;-74
2022/05/17 02:37:42;;;;;;;15.50;8.70;;;18.50;92.30;;;;;;5037384;28;20122;-74
2022/05/17 02:40:10;;;;;;;17.42;8.35;;;18.40;92.40;;;;;;5046158;28;20037;-74
2022/05/17 02:42:38;;;;;;;13.73;8.20;;;18.30;92.80;;;;;;5033636;28;20033;-74
2022/05/17 02:45:06;;;;;;;13.18;7.43;;;18.40;92.50;;;;;;5034275;28;20038;-74
2022/05/17 02:47:34;;;;;;;11.23;7.50;;;18.40;92.30;;;;;;5039354;28;20152;-74
2022/05/17 02:50:03;;;;;;;11.52;7.30;;;18.50;92.10;;;;;;5039117;28;20128;-74
2022/05/17 02:52:31;;;;;;;13.90;7.47;;;18.50;91.40;;;;;;5064027;28;20044;-74
2022/05/17 02:54:58;;;;;;;10.85;7.40;;;18.40;91.50;;;;;;5035633;28;20045;-74
2022/05/17 02:57:25;;;;;;;13.45;7.32;;;18.30;91.80;;;;;;5052946;28;20579;-74
2022/05/17 02:59:52;;;;;;;13.63;7.43;;;18.30;92.00;;;;;;5020337;28;20041;-74
2022/05/17 03:02:19;;;;;;;13.75;6.82;;;18.40;91.80;;;;;;5051780;28;20041;-74
2022/05/17 03:04:49;;;;;;;14.98;7.70;;;18.40;91.50;;;;;;5037451;28;20041;-75
2022/05/17 03:07:16;;;;;;;12.88;7.75;;;18.50;91.40;;;;;;5038734;28;20044;-75
2022/05/17 03:09:43;;;;;;;13.48;7.93;;;18.60;91.50;;;;;;5036141;28;20059;-75
2022/05/17 03:12:11;;;;;;;10.98;6.93;;;18.70;91.50;;;;;;5034761;28;20133;-75
2022/05/17 03:14:38;;;;;;;11.73;8.00;;;18.70;91.80;;;;;;5049492;28;20045;-75
2022/05/17 03:17:13;;;;;;;10.88;6.97;;;18.70;91.90;;;;;;5034770;28;20041;-74
2022/05/17 03:19:42;;;;;;;12.25;7.07;;;18.70;91.90;;;;;;5036585;28;20415;-74
2022/05/17 03:22:10;;;;;;;10.13;7.05;;;18.70;91.80;;;;;;5032836;28;20484;-75
2022/05/17 03:24:38;;;;;;;13.48;7.75;;;18.70;92.00;;;;;;5036578;28;20049;-75
2022/05/17 03:27:25;;;;;;;19.80;8.77;;;18.70;92.50;;;;;;5037421;28;20048;-75
2022/05/17 03:29:52;;;;;;;15.18;8.23;;;18.60;92.40;;;;;;5033752;28;20112;-74
2022/05/17 03:32:20;;;;;;;17.25;7.68;;;18.60;92.30;;;;;;5047037;28;20458;-75
2022/05/17 03:34:47;;;;;;;14.05;7.60;;;18.60;92.40;;;;;;5034550;28;20067;-75
2022/05/17 03:37:14;;;;;;;15.32;7.65;;;18.60;93.00;;;;;;5069320;28;20598;-75
2022/05/17 03:39:41;;;;;;;11.07;8.02;;;18.60;93.10;;;;;;5036226;28;20049;-74
2022/05/17 03:42:09;;;;;;;12.43;8.25;;;18.70;92.60;;;;;;5034915;28;20037;-75
2022/05/17 03:44:37;;;;;;;16.02;8.80;;;18.50;93.30;;;;;;5031262;28;20037;-75
2022/05/17 03:47:07;;;;;;;13.48;8.23;;;18.50;93.20;;;;;;5034915;28;20056;-75
2022/05/17 03:49:37;;;;;;;12.67;8.03;;;18.50;93.10;;;;;;5049739;28;20033;-75
2022/05/17 03:52:05;;;;;;;16.30;7.78;;;18.50;93.00;;;;;;5037293;28;20300;-75
2022/05/17 03:54:32;;;;;;;12.57;7.90;;;18.60;93.40;;;;;;5036647;28;20419;-75
2022/05/17 03:56:59;;;;;;;11.40;7.35;;;18.50;93.40;;;;;;5035798;28;20491;-75
2022/05/17 03:59:26;;;;;;;14.02;7.72;;;18.60;93.50;;;;;;5036137;28;20033;-75
2022/05/17 04:01:53;;;;;;;13.35;7.60;;;18.60;93.90;;;;;;5030762;28;20590;-75
2022/05/17 04:04:20;;;;;;;17.02;7.78;;;18.70;93.40;;;;;;5031639;28;20571;-74
2022/05/17 04:06:48;;;;;;;12.13;7.53;;;18.60;93.10;;;;;;5037986;28;20048;-75
2022/05/17 04:09:15;;;;;;;10.60;6.78;;;18.70;93.40;;;;;;5035897;28;20037;-75
2022/05/17 04:11:42;;;;;;;15.25;7.90;;;18.70;93.10;;;;;;5029082;28;20130;-75
2022/05/17 04:14:09;;;;;;;15.48;7.30;;;18.80;93.40;;;;;;5052271;28;20045;-75
2022/05/17 04:16:40;;;;;;;13.23;8.23;;;18.80;93.80;;;;;;5049104;28;20121;-75
2022/05/17 04:19:07;;;;;;;16.20;7.57;;;18.80;93.30;;;;;;5051329;28;20440;-74
2022/05/17 04:21:36;;;;;;;13.70;7.55;;;18.80;93.10;;;;;;5028567;28;20535;-74
2022/05/17 04:24:03;;;;;;;13.98;7.53;;;18.80;93.40;;;;;;5035513;28;20041;-74
2022/05/17 04:26:30;;;;;;;11.38;7.32;;;18.90;93.40;;;;;;5034292;28;20453;-75
2022/05/17 04:28:58;;;;;;;11.65;7.53;;;18.90;93.70;;;;;;5018052;28;20048;-75
2022/05/17 04:31:25;;;;;;;12.07;7.32;;;18.90;93.90;;;;;;5031726;28;20044;-74
2022/05/17 04:33:54;;;;;;;12.38;7.25;;;18.90;93.20;;;;;;5035145;28;20106;-74
2022/05/17 04:36:21;;;;;;;15.50;7.97;;;18.90;93.10;;;;;;5035293;28;20107;-74
2022/05/17 04:38:48;;;;;;;13.50;7.30;;;18.90;93.20;;;;;;5031547;28;20055;-74
2022/05/17 04:41:16;;;;;;;14.10;7.95;;;18.90;92.80;;;;;;5035454;28;20040;-74
2022/05/17 04:43:49;;;;;;;12.63;7.45;;;19.00;92.70;;;;;;5037191;28;20065;-74
2022/05/17 04:46:19;;;;;;;16.90;7.15;;;19.10;92.50;;;;;;5039341;28;20129;-75
2022/05/17 04:48:47;;;;;;;11.43;7.05;;;19.20;92.60;;;;;;5066654;28;20046;-74
2022/05/17 04:51:14;;;;;;;10.77;7.00;;;19.20;92.50;;;;;;5018240;28;22057;-74
2022/05/17 04:53:44;;;;;;;12.60;7.10;;;19.20;93.50;;;;;;5039076;28;20044;-75
2022/05/17 04:56:12;;;;;;;15.05;8.57;;;19.20;93.00;;;;;;5038497;28;20480;-75
2022/05/17 04:58:40;;;;;;;14.82;8.50;;;19.20;93.50;;;;;;5039744;28;20114;-75
2022/05/17 05:01:07;;;;;;;14.90;8.50;;;19.30;93.50;;;;;;5020121;28;20590;-75
2022/05/17 05:03:34;;;;;;;12.45;7.38;;;19.30;94.10;;;;;;5013287;28;20052;-74
2022/05/17 05:06:02;;;;;;;13.60;7.65;;;19.40;94.10;;;;;;4997666;28;20726;-74
2022/05/17 05:08:29;;;;;;;13.32;7.68;;;19.40;93.60;;;;;;5014812;28;22134;-74
2022/05/17 05:10:56;;;;;;;14.45;8.13;;;19.50;92.60;;;;;;4996032;28;20060;-75
2022/05/17 05:13:25;;;;;;;17.27;8.50;;;19.50;92.10;;;;;;4988685;28;20049;-74
2022/05/17 05:15:54;;;;;;;16.27;7.57;;;19.50;91.40;;;;;;4999929;28;20053;-75
2022/05/17 05:18:21;;;;;;;13.13;7.35;;;19.50;91.50;;;;;;4993766;28;20090;-74
2022/05/17 05:20:48;;;;;;;12.18;7.78;;;19.40;91.40;;;;;;4996511;28;20047;-75
2022/05/17 05:23:15;;;;;;;10.43;7.25;;;19.40;91.60;;;;;;5012673;28;20045;-74
2022/05/17 05:25:42;;;;;;;16.33;7.68;;;19.50;91.70;;;;;;5012041;28;20397;-75
2022/05/17 05:28:10;;;;;;;12.45;6.95;;;19.60;91.80;;;;;;4997836;28;20123;-74
2022/05/17 05:30:38;;;;;;;13.18;6.68;;;19.70;91.30;;;;;;5026302;28;20153;-75
2022/05/17 05:33:05;;;;;;;18.10;7.57;;;19.80;90.90;;;;;;4996598;28;20049;-74
2022/05/17 05:35:32;;;;;;;9.32;6.00;;;19.80;90.70;;;;;;4997137;28;20064;-74
2022/05/17 05:38:02;;;;;;;10.52;5.97;;;19.90;90.60;;;;;;4997478;28;20574;-75
2022/05/17 05:40:29;;;;;;;13.05;5.43;;;20.00;90.20;;;;;;4979156;28;20194;-75
2022/05/17 05:42:57;;;;;;;9.57;5.28;;;20.00;89.80;;;;;;4987118;28;22053;-75
2022/05/17 05:45:24;;;;;;;9.73;5.18;;;19.90;84.50;;;;;;4997282;28;20419;-74
2022/05/17 05:47:52;;;;;;;10.13;4.78;;;19.90;85.30;;;;;;4996825;28;20739;-75
2022/05/17 05:50:19;;;;;;;9.52;4.60;;;20.00;85.00;;;;;;4995014;28;20795;-75
2022/05/17 05:52:48;;;;;;;9.55;4.88;;;20.10;84.90;;;;;;5012929;28;20056;-76
2022/05/17 05:55:20;;;;;;;11.13;5.22;;;20.00;83.90;;;;;;4997661;28;20052;-76
2022/05/17 05:57:48;;;;;;;7.70;4.55;;;20.00;83.70;;;;;;5012452;28;20723;-75
2022/05/17 06:00:18;;;;;;;7.60;4.57;;;20.10;84.20;;;;;;5023275;28;20041;-75
2022/05/17 06:02:45;;;;;;;11.07;5.00;;;20.20;84.30;;;;;;5009372;28;20045;-75
2022/05/17 06:05:13;;;;;;;8.95;4.80;;;20.20;83.60;;;;;;4994294;28;20203;-75
2022/05/17 06:07:40;;;;;;;10.48;5.60;;;20.30;83.40;;;;;;4996324;28;20204;-75
2022/05/17 06:10:08;;;;;;;9.40;5.25;;;20.50;83.30;;;;;;4995773;28;20053;-76
2022/05/17 06:12:35;;;;;;;9.85;4.75;;;20.60;81.90;;;;;;5028395;28;20812;-76
2022/05/17 06:15:04;;;;;;;11.25;5.78;;;20.60;81.30;;;;;;4999757;28;20092;-75
2022/05/17 06:17:32;;;;;;;6.40;4.82;;;20.60;81.70;;;;;;4984954;28;20060;-75
2022/05/17 06:20:00;;;;;;;7.80;4.90;;;20.50;81.10;;;;;;5013483;28;20060;-75
2022/05/17 06:22:27;;;;;;;12.45;5.13;;;20.50;81.70;;;;;;4996309;28;20720;-75
2022/05/17 06:24:54;;;;;;;7.53;4.50;;;20.50;81.70;;;;;;5011483;28;20049;-75
2022/05/17 06:27:24;;;;;;;11.20;4.60;;;20.60;81.60;;;;;;4996264;28;20044;-75
2022/05/17 06:29:52;;;;;;;6.05;4.22;;;20.60;80.60;;;;;;4994578;28;20049;-75
2022/05/17 06:32:20;;;;;;;7.03;4.40;;;20.70;81.40;;;;;;4986570;28;20078;-76
2022/05/17 06:34:47;;;;;;;7.10;4.22;;;20.60;81.70;;;;;;5010595;28;20122;-76
2022/05/17 06:37:15;;;;;;;8.48;4.30;;;20.70;81.80;;;;;;4990294;28;20048;-75
2022/05/17 06:39:45;;;;;;;7.32;4.82;;;20.70;81.70;;;;;;4996589;28;22507;-74
2022/05/17 06:42:14;;;;;;;10.73;4.40;;;20.90;81.50;;;;;;4979293;28;20051;-75
2022/05/17 06:44:41;;;;;;;7.05;4.35;;;21.00;81.10;;;;;;5008581;28;20080;-75
2022/05/17 06:47:09;;;;;;;8.48;4.28;;;21.10;78.60;;;;;;4997361;28;20427;-75
2022/05/17 06:49:37;;;;;;;6.85;3.65;;;21.30;78.70;;;;;;4992903;28;20661;-75
2022/05/17 06:52:06;;;;;;;10.20;3.97;;;21.20;76.90;;;;;;4993065;28;22014;-75
2022/05/17 06:54:41;;;;;;;7.10;3.80;;;21.30;76.30;;;;;;4997296;28;20127;-76
2022/05/17 06:57:13;;;;;;;7.25;3.90;;;21.40;76.90;;;;;;4995700;28;20198;-74
2022/05/17 06:59:42;;;;;;;7.78;3.80;;;21.40;74.80;;;;;;4996825;28;20045;-75
2022/05/17 07:02:11;;;;;;;7.47;3.97;;;21.50;74.90;;;;;;4997555;28;22131;-76
2022/05/17 07:04:38;;;;;;;5.80;3.80;;;21.70;74.80;;;;;;4994620;28;20053;-76
2022/05/17 07:07:06;;;;;;;9.00;4.70;;;21.80;74.90;;;;;;4995259;28;20056;-75
2022/05/17 07:09:35;;;;;;;8.05;3.95;;;22.00;74.00;;;;;;4993649;28;20179;-75
2022/05/17 07:14:51;;;;;;;7.45;4.78;;;22.10;74.00;;;;;;4994886;28;20829;-75
2022/05/17 07:17:21;;;;;;;7.25;3.90;;;22.00;74.60;;;;;;4991656;28;20045;-74
2022/05/17 07:19:48;;;;;;;8.77;4.15;;;21.90;75.20;;;;;;4992364;28;20760;-76
2022/05/17 07:22:16;;;;;;;8.32;4.43;;;22.00;74.70;;;;;;4987350;28;20041;-76
2022/05/17 07:24:45;;;;;;;7.63;4.50;;;22.00;74.60;;;;;;4991709;28;20037;-75
2022/05/17 07:27:14;;;;;;;6.50;5.07;;;22.20;73.90;;;;;;4986555;28;20060;-75
2022/05/17 07:29:50;;;;;;;9.43;4.30;;;22.20;73.70;;;;;;4976893;28;20057;-75
2022/05/17 07:32:17;;;;;;;6.03;4.10;;;22.40;74.10;;;;;;4987638;28;20067;-74
2022/05/17 07:34:44;;;;;;;9.73;4.40;;;22.50;72.60;;;;;;4995441;28;20056;-76
2022/05/17 07:37:11;;;;;;;9.50;4.30;;;22.50;72.00;;;;;;4989692;28;20060;-75
2022/05/17 07:39:38;;;;;;;7.90;4.97;;;22.60;72.50;;;;;;4986213;28;20508;-75
2022/05/17 07:42:08;;;;;;;10.93;3.80;;;22.70;72.70;;;;;;5015084;28;21146;-75
2022/05/17 07:44:36;;;;;;;9.98;4.18;;;22.90;73.10;;;;;;5003405;28;20111;-76
2022/05/17 07:47:05;;;;;;;7.55;4.63;;;23.00;72.20;;;;;;4975370;28;20672;-76
2022/05/17 07:49:33;;;;;;;11.60;5.03;;;23.00;72.50;;;;;;4988943;28;20253;-75
2022/05/17 07:52:02;;;;;;;7.15;4.50;;;22.90;71.50;;;;;;4986506;28;20056;-75
2022/05/17 07:54:29;;;;;;;6.55;4.85;;;22.80;71.90;;;;;;4996404;28;20049;-75
2022/05/17 07:56:56;;;;;;;6.38;4.78;;;22.90;72.80;;;;;;5031251;28;20049;-76
2022/05/17 07:59:23;;;;;;;8.77;4.82;;;22.80;72.10;;;;;;5011480;28;20140;-75
2022/05/17 08:01:51;;;;;;;13.13;5.07;;;22.70;71.50;;;;;;5011807;28;20048;-75
2022/05/17 08:04:18;;;;;;;10.27;5.07;;;22.70;72.30;;;;;;5009627;28;20052;-76
2022/05/17 08:06:46;;;;;;;9.13;4.93;;;22.70;72.90;;;;;;5012283;28;20052;-76
2022/05/17 08:09:14;;;;;;;6.95;4.63;;;22.70;73.50;;;;;;5005951;28;20041;-74
2022/05/17 08:11:43;;;;;;;9.80;5.07;;;22.70;74.50;;;;;;5000855;28;20041;-75
2022/05/17 08:14:11;;;;;;;8.70;5.30;;;22.70;76.30;;;;;;5012696;28;20045;-76
2022/05/17 08:16:41;;;;;;;8.75;4.65;;;22.90;75.10;;;;;;5009991;28;20049;-74
2022/05/17 08:19:12;;;;;;;10.73;5.45;;;23.10;75.40;;;;;;5010880;28;22186;-75
2022/05/17 08:21:39;;;;;;;17.63;5.65;;;23.20;75.00;;;;;;5001836;28;20634;-74
2022/05/17 08:24:07;;;;;;;13.43;5.18;;;23.20;75.60;;;;;;5024489;28;20404;-75
2022/05/17 08:29:20;;;;;;;8.30;5.32;;;23.90;74.40;;;;;;5001933;28;20083;-75
2022/05/17 08:34:34;;;;;;;10.35;5.88;;;23.90;72.10;;;;;;4988155;28;20186;-76
2022/05/17 08:37:01;;;;;;;8.90;4.97;;;23.90;73.60;;;;;;4985520;28;20151;-74
2022/05/17 08:39:29;;;;;;;9.95;4.78;;;23.80;72.80;;;;;;5012555;28;20208;-74
2022/05/17 08:42:04;;;;;;;8.90;5.05;;;23.60;72.20;;;;;;4982929;28;20512;-75
2022/05/17 08:44:34;;;;;;;10.00;4.68;;;23.60;72.00;;;;;;4988988;28;22128;-76
2022/05/17 08:47:09;;;;;;;6.45;4.15;;;23.40;72.50;;;;;;4984972;28;20183;-75
2022/05/17 08:50:02;;;;;;;6.63;3.72;;;23.40;73.40;;;;;;4985673;28;20507;-76
2022/05/17 08:52:32;;;;;;;7.07;4.25;;;23.10;71.80;;;;;;4985412;28;20483;-76
2022/05/17 08:55:11;;;;;;;10.18;4.18;;;23.20;72.70;;;;;;4986023;28;20045;-73
2022/05/17 08:57:50;;;;;;;6.95;4.03;;;23.20;73.80;;;;;;4977725;28;20049;-76
2022/05/17 09:00:24;;;;;;;9.82;4.50;;;23.10;76.00;;;;;;4984730;28;20748;-76
2022/05/17 09:03:00;;;;;;;8.07;4.82;;;22.90;79.00;;;;;;4995174;28;20060;-75
2022/05/17 09:06:12;;;;;;;12.18;5.03;;;22.70;81.70;;;;;;5002582;28;20076;-75
2022/05/17 09:09:02;;;;;;;6.60;4.90;;;22.70;83.20;;;;;;4944501;28;20053;-76
2022/05/17 09:11:49;;;;;;;12.52;5.68;;;22.70;84.10;;;;;;5018488;28;20688;-75
2022/05/17 09:14:23;;;;;;;11.77;4.90;;;22.40;82.50;;;;;;4991929;28;20055;-75
2022/05/17 09:17:06;;;;;;;15.05;5.50;;;22.00;84.30;;;;;;4990157;28;20051;-76
2022/05/17 09:19:33;;;;;;;6.53;4.65;;;22.00;84.90;;;;;;4987195;28;20136;-74
2022/05/17 09:22:02;;;;;;;12.00;5.13;;;22.10;85.30;;;;;;4991725;28;20048;-75
2022/05/17 09:24:46;;;;;;;10.68;5.35;;;22.00;85.80;;;;;;4993598;28;20037;-75
2022/05/17 09:27:28;;;;;;;7.95;4.97;;;21.90;86.40;;;;;;4990668;28;20137;-74
2022/05/17 09:30:33;;;;;;;8.20;5.40;;;22.00;87.30;;;;;;4991166;28;20685;-74
2022/05/17 09:33:08;;;;;;;7.60;5.25;;;21.80;88.20;;;;;;4988085;28;20242;-76
2022/05/17 09:36:04;;;;;;;10.43;5.50;;;21.80;88.60;;;;;;4982534;28;20037;-76
2022/05/17 09:38:35;;;;;;;11.45;5.75;;;21.80;89.80;;;;;;4986744;28;20049;-76
2022/05/17 09:41:08;;;;;;;11.10;5.68;;;21.70;90.80;;;;;;5011074;28;20049;-75
2022/05/17 09:44:00;;;;;;;9.30;6.15;;;21.60;91.10;;;;;;5011941;28;20567;-73
2022/05/17 09:46:33;;;;;;;7.97;5.82;;;21.40;93.10;;;;;;5014223;28;20048;-74
2022/05/17 09:52:35;;;;;;;12.38;6.47;;;20.90;98.20;;;;;;4992630;28;20936;-75
2022/05/17 09:55:21;;;;;;;15.13;7.65;;;20.80;99.90;;;;;;4972169;28;20049;-75
2022/05/17 09:57:58;;;;;;;10.38;6.65;;;20.60;99.90;;;;;;4999718;28;20096;-75
2022/05/17 10:00:50;;;;;;;9.45;6.80;;;20.50;99.90;;;;;;4995124;28;20064;-75
2022/05/17 10:03:37;;;;;;;11.82;7.65;;;20.40;99.90;;;;;;5026823;28;20118;-76
2022/05/17 10:06:29;;;;;;;11.38;8.65;;;20.40;99.90;;;;;;4996022;28;20049;-76
2022/05/17 10:09:00;;;;;;;11.32;7.45;;;20.50;99.90;;;;;;4981583;28;20057;-74
2022/05/17 10:11:45;;;;;;;11.43;8.18;;;20.40;99.90;;;;;;4993796;28;20053;-73
2022/05/17 10:14:33;;;;;;;12.15;8.50;;;20.50;99.90;;;;;;5011205;28;20063;-75
2022/05/17 10:17:20;;;;;;;15.05;8.60;;;20.60;99.90;;;;;;4995666;28;20094;-74
2022/05/17 10:20:02;;;;;;;12.45;8.45;;;20.70;99.90;;;;;;4998670;28;20102;-77
2022/05/17 10:22:54;;;;;;;13.73;8.80;;;20.60;99.90;;;;;;4975248;28;20143;-74
2022/05/17 10:25:31;;;;;;;15.00;8.90;;;20.60;99.90;;;;;;4993840;28;20063;-73
2022/05/17 10:28:06;;;;;;;13.85;8.85;;;20.70;99.90;;;;;;4994789;28;20134;-73
2022/05/17 10:30:47;;;;;;;15.60;8.95;;;20.60;99.90;;;;;;4992746;28;20169;-73
2022/05/17 10:33:21;;;;;;;19.17;10.48;;;20.40;99.90;;;;;;4995707;28;20076;-73
2022/05/17 10:35:55;;;;;;;14.05;7.90;;;20.50;99.90;;;;;;4995089;28;20567;-73
2022/05/17 10:38:27;;;;;;;12.48;8.32;;;20.30;99.90;;;;;;5004217;28;20049;-73
2022/05/17 10:40:55;;;;;;;11.75;8.32;;;20.30;99.90;;;;;;4992614;28;20127;-72
2022/05/17 10:43:38;;;;;;;12.05;7.45;;;20.30;99.90;;;;;;4990710;28;20045;-73
2022/05/17 10:46:30;;;;;;;12.30;8.35;;;20.20;99.90;;;;;;4992161;28;20104;-73
2022/05/17 10:49:09;;;;;;;14.70;8.63;;;20.00;99.90;;;;;;4978797;28;20056;-73
2022/05/17 10:51:52;;;;;;;11.90;8.52;;;19.90;99.90;;;;;;5008296;28;20048;-72
2022/05/17 10:54:29;;;;;;;14.23;8.02;;;19.90;99.90;;;;;;4994684;28;20183;-73
2022/05/17 10:56:59;;;;;;;13.70;7.90;;;19.90;99.90;;;;;;5006489;28;20053;-72
2022/05/17 10:59:45;;;;;;;16.30;8.32;;;20.00;99.90;;;;;;4994779;28;20059;-73
2022/05/17 11:02:36;;;;;;;12.93;9.15;;;20.00;99.90;;;;;;4993456;28;20037;-73
2022/05/17 11:05:45;;;;;;;12.23;7.60;;;20.20;99.90;;;;;;4995187;28;20151;-72
2022/05/17 11:08:47;;;;;;;10.75;6.28;;;20.10;99.90;;;;;;5001123;28;20297;-74
2022/05/17 11:11:39;;;;;;;11.82;6.43;;;19.50;99.90;;;;;;4975399;28;22800;-73
2022/05/17 11:14:19;;;;;;;9.85;6.57;;;19.50;99.90;;;;;;4993870;28;20294;-73
2022/05/17 11:16:49;;;;;;;10.65;6.05;;;19.40;99.90;;;;;;4993812;28;20777;-73
2022/05/17 11:19:25;;;;;;;10.65;6.30;;;19.50;99.90;;;;;;4991982;28;20784;-73
2022/05/17 11:22:06;;;;;;;11.32;6.47;;;19.70;99.90;;;;;;4996321;28;22356;-73
2022/05/17 11:25:06;;;;;;;10.02;6.05;;;19.70;98.30;;;;;;4983811;28;20049;-73
2022/05/17 11:27:52;;;;;;;14.90;5.45;;;19.90;98.70;;;;;;5009381;28;20112;-73
2022/05/17 11:30:44;;;;;;;7.32;5.13;;;20.00;98.30;;;;;;5008011;28;20183;-73
2022/05/17 11:33:11;;;;;;;10.98;5.50;;;20.10;97.80;;;;;;4973484;28;20083;-73
2022/05/17 11:36:00;;;;;;;8.38;4.57;;;20.30;99.90;;;;;;4989339;28;20704;-72
2022/05/17 11:38:37;;;;;;;6.82;4.40;;;20.30;95.90;;;;;;4941679;28;20547;-72
2022/05/17 11:41:16;;;;;;;9.43;4.40;;;20.30;94.70;;;;;;4987696;28;20944;-73
2022/05/17 11:44:11;;;;;;;10.70;4.90;;;20.40;96.60;;;;;;4989200;28;20037;-72
2022/05/17 11:46:48;;;;;;;6.57;4.07;;;20.50;96.00;;;;;;5004003;28;20159;-72
2022/05/17 11:49:16;;;;;;;10.13;4.30;;;20.60;94.40;;;;;;4992676;28;20084;-72
2022/05/17 11:51:59;;;;;;;7.35;3.72;;;20.70;95.60;;;;;;4989185;28;20412;-72
2022/05/17 11:54:46;;;;;;;6.35;3.50;;;20.80;92.10;;;;;;5005096;28;20052;-72
2022/05/17 11:57:16;;;;;;;6.53;4.05;;;20.80;89.50;;;;;;4988468;28;20892;-74
2022/05/17 11:59:54;;;;;;;6.03;3.17;;;20.90;91.80;;;;;;4989764;28;20210;-73
2022/05/17 12:02:41;;;;;;;10.20;3.80;;;21.00;91.00;;;;;;5006560;28;20559;-72
2022/05/17 12:05:33;;;;;;;4.05;3.45;;;21.00;88.00;;;;;;4989742;28;20053;-73
2022/05/17 12:08:32;;;;;;;5.97;3.40;;;21.10;90.00;;;;;;4991292;28;20049;-73
2022/05/17 12:11:51;;;;;;;6.38;3.75;;;21.10;87.30;;;;;;4991297;28;20904;-73
2022/05/17 12:14:46;;;;;;;7.13;4.28;;;21.30;88.50;;;;;;4966196;28;20060;-74
2022/05/17 12:17:21;;;;;;;5.68;3.67;;;21.30;87.60;;;;;;4990106;28;20827;-73
2022/05/17 12:19:57;;;;;;;7.28;4.25;;;21.50;87.40;;;;;;4986339;28;20102;-73
2022/05/17 12:22:44;;;;;;;6.60;4.40;;;21.60;90.60;;;;;;4985957;28;20851;-73
2022/05/17 12:25:25;;;;;;;6.32;4.28;;;21.70;88.50;;;;;;4990113;28;20049;-74
2022/05/17 12:28:01;;;;;;;9.13;4.97;;;21.70;86.90;;;;;;4979059;28;20282;-73
2022/05/17 12:33:18;;;;;;;8.13;4.45;;;21.80;86.20;;;;;;5007313;28;20099;-72
2022/05/17 12:35:46;;;;;;;9.18;4.53;;;21.90;86.90;;;;;;4983151;28;20649;-72
2022/05/17 12:44:20;;;;;;;6.32;4.22;;;21.60;82.80;;;;;;5005502;28;20049;-74
2022/05/17 12:46:50;;;;;;;7.27;3.53;;;21.40;81.20;;;;;;4987706;28;20071;-75
2022/05/17 12:49:22;;;;;;;8.13;4.50;;;21.30;81.20;;;;;;4982655;28;21900;-76
2022/05/17 12:51:58;;;;;;;6.68;3.70;;;21.40;81.60;;;;;;5007042;28;20049;-75
2022/05/17 12:54:29;;;;;;;6.15;3.42;;;21.40;81.50;;;;;;4993341;28;20045;-76
2022/05/17 12:57:26;;;;;;;7.25;3.85;;;21.40;82.20;;;;;;4989913;28;20136;-72
2022/05/17 13:00:07;;;;;;;6.32;3.38;;;21.50;83.00;;;;;;4989469;28;20136;-73
2022/05/17 13:02:43;;;;;;;6.97;3.20;;;21.50;83.40;;;;;;4990076;28;20056;-75
2022/05/17 13:05:35;;;;;;;10.25;4.15;;;21.50;86.00;;;;;;4992395;28;20088;-73
2022/05/17 13:08:07;;;;;;;7.75;3.97;;;21.50;85.60;;;;;;4992070;28;20044;-73
2022/05/17 13:10:38;;;;;;;7.65;4.65;;;21.50;85.00;;;;;;4991698;28;20051;-75
2022/05/17 13:13:16;;;;;;;7.45;4.65;;;21.50;85.90;;;;;;5023147;28;20055;-72
2022/05/17 13:15:47;;;;;;;9.02;5.50;;;21.50;88.20;;;;;;5001014;28;20560;-73
2022/05/17 13:18:16;;;;;;;8.20;4.47;;;21.60;89.20;;;;;;5011898;28;20506;-74
2022/05/17 13:20:49;;;;;;;9.68;5.82;;;21.40;88.30;;;;;;5012525;28;20075;-74
2022/05/17 13:23:21;;;;;;;10.13;5.70;;;21.30;88.50;;;;;;4995350;28;20049;-73
2022/05/17 13:25:51;;;;;;;9.13;5.68;;;21.20;89.20;;;;;;4988781;28;22702;-73
2022/05/17 13:28:27;;;;;;;10.07;6.18;;;21.10;90.90;;;;;;5012906;28;20049;-73
2022/05/17 13:31:09;;;;;;;7.43;6.30;;;21.10;92.10;;;;;;4997027;28;20045;-73